Latest Weather Observations for Moorabbin Airport

IDV60801

Issued at 12:42 am EDT Sunday 16 December 2018 (issued every 10 minutes, with the page automatically refreshed every 10 minutes)

About weather observations | Map of weather stations | Latest weather observations for VIC | Other Formats
Station Details ID: 086077 Name: MOORABBIN AIRPORT Lat: -37.98 Lon: 145.10 Height: 12.1 m
Data from the previous 72 hours. | See also: Recent months at Moorabbin Airport
Date/Time
EDT
Temp
°C
App
Temp
°C
Dew
Point
°C
Rel
Hum
%
Delta-T
°C
Wind Press
QNH
hPa
Press
MSL
hPa
Rain since
9am
mm
Dir  Spd
km/h
Gust
km/h
Spd
kts
Gust
kts
16/12:30am 19.2 18.2 14.7 75 2.6 NNE 13 19 7 10 1004.9 1004.9 0.4
16/12:00am 18.8 18.5 14.5 76 2.5 E 9 11 5 6 1004.3 1004.3 0.4
 
Date/Time
EDT
Temp
°C
App
Temp
°C
Dew
Point
°C
Rel
Hum
%
Delta-T
°C
Wind Press
QNH
hPa
Press
MSL
hPa
Rain since
9am
mm
Dir  Spd
km/h
Gust
km/h
Spd
kts
Gust
kts
15/11:30pm 19.6 19.2 14.2 71 3.1 N 9 13 5 7 1004.5 1004.5 0.4
15/11:00pm 20.4 19.3 14.3 68 3.6 NNE 13 17 7 9 1004.9 1004.9 0.4
15/10:30pm 21.1 20.6 13.8 63 4.2 NNE 9 13 5 7 1004.8 1004.8 0.4
15/10:00pm 20.9 20.1 12.8 60 4.6 NNE 9 11 5 6 1004.9 1004.9 0.4
15/09:30pm 21.4 20.4 12.3 56 5.1 ENE 9 11 5 6 1004.5 1004.5 0.4
15/09:00pm 21.5 20.1 12.1 55 5.3 N 11 17 6 9 1004.4 1004.4 0.4
15/08:30pm 21.7 19.8 11.7 53 5.6 N 13 19 7 10 1003.9 1003.9 0.4
15/08:00pm 22.5 19.7 11.3 49 6.3 N 17 22 9 12 1003.2 1003.2 0.4
15/07:30pm 22.9 19.1 11.0 47 6.6 N 22 30 12 16 1003.0 1003.0 0.4
15/07:00pm 23.1 20.5 13.8 55 5.4 N 20 28 11 15 1002.9 1002.9 0.4
15/06:30pm 24.5 21.6 12.8 48 6.8 NNW 20 37 11 20 1002.8 1002.8 0.4
15/06:00pm 22.9 20.3 13.1 54 5.7 SW 19 24 10 13 1002.7 1002.7 0.4
15/05:30pm 23.4 21.0 13.8 54 5.6 W 19 32 10 17 1002.8 1002.8 0.4
15/05:00pm 24.3 22.9 13.5 51 6.3 W 13 20 7 11 1003.3 1003.3 0.4
15/04:30pm 23.2 22.0 13.9 56 5.4 N 13 22 7 12 1003.5 1003.5 0.4
15/04:00pm 22.7 20.8 12.9 54 5.6 N 15 26 8 14 1004.1 1004.1 0.4
15/03:30pm 22.2 21.1 15.3 65 4.1 N 15 20 8 11 1004.1 1004.1 0.4
15/03:00pm 21.3 19.0 15.6 70 3.4 N 22 32 12 17 1004.0 1004.0 0.4
15/02:30pm 19.4 14.3 13.6 69 3.3 N 33 46 18 25 1004.2 1004.2 0.2
15/02:16pm 23.0 18.8 13.5 55 5.5 NNW 28 54 15 29 1003.9 1003.9 0.0
15/02:00pm 23.8 22.6 16.1 62 4.7 NNW 17 28 9 15 1003.5 1003.5 0.0
15/01:30pm 23.5 23.0 16.8 66 4.1 W 15 20 8 11 1003.4 1003.4 0.0
15/01:00pm 23.7 24.1 17.2 67 4.0 SSW 11 26 6 14 1003.4 1003.4 0.0
15/12:30pm 24.0 24.9 17.5 67 4.0 WNW 9 19 5 10 1003.9 1003.9 0.0
15/12:00pm 23.0 23.7 17.0 69 3.7 NNW 9 11 5 6 1004.3 1004.3 0.0
15/11:30am 22.3 22.4 17.4 74 3.0 NNW 13 20 7 11 1004.3 1004.3 0.0
15/11:00am 21.5 21.3 17.5 78 2.5 NNW 15 20 8 11 1004.4 1004.4 0.0
15/10:30am 21.2 20.8 18.0 82 2.0 NNW 17 22 9 12 1004.6 1004.6 0.0
15/10:17am 21.1 21.1 18.1 83 1.9 NNW 15 20 8 11 1004.6 1004.6 0.0
15/10:06am 21.2 21.2 18.2 83 1.9 NW 15 20 8 11 1004.4 1004.4 0.0
15/10:00am 21.3 21.2 17.9 81 2.1 NNW 15 20 8 11 1004.6 1004.6 0.0
15/09:30am 22.0 22.4 18.2 79 2.4 E 13 19 7 10 1004.2 1004.2 0.0
15/09:00am 21.6 21.8 20.2 92 0.9 E 19 24 10 13 1004.5 1004.5 6.2
15/08:30am 20.6 21.8 20.6 100 0.0 ESE 15 20 8 11 1004.8 1004.8 6.2
15/08:00am 19.6 22.7 19.6 100 0.0 NE 2 11 1 6 1004.6 1004.6 6.2
15/07:30am 18.9 20.8 18.9 100 0.0 N 7 9 4 5 1004.4 1004.4 6.2
15/07:00am 18.7 21.8 18.7 100 0.0 CALM 0 0 0 0 1004.1 1004.1 6.2
15/06:30am 18.3 20.5 18.3 100 0.0 NW 4 7 2 4 1003.9 1003.9 6.2
15/06:00am 17.9 20.3 17.9 100 0.0 NW 2 7 1 4 1004.1 1004.1 6.2
15/05:47am 17.5 20.1 17.5 100 0.0 CALM 0 0 0 0 1004.1 1004.1 6.2
15/05:30am 17.7 20.4 17.7 100 0.0 CALM 0 4 0 2 1004.1 1004.1 6.2
15/05:00am 17.9 19.0 17.9 100 0.0 SE 9 11 5 6 1004.3 1004.3 6.2
15/04:31am 17.7 19.1 17.7 100 0.0 SSE 7 9 4 5 1004.1 1004.1 6.2
15/04:30am 17.7 19.1 17.7 100 0.0 S 7 9 4 5 1004.1 1004.1 6.2
15/04:00am 19.3 20.6 19.3 100 0.0 ENE 11 15 6 8 1004.5 1004.5 5.8
15/03:30am 19.2 20.5 19.2 100 0.0 SE 11 15 6 8 1004.3 1004.3 5.6
15/03:00am 19.3 20.5 19.1 99 0.1 SE 11 15 6 8 1004.4 1004.4 5.6
15/02:30am 19.5 21.4 19.0 97 0.3 SSE 7 9 4 5 1004.9 1004.9 5.6
15/02:00am 19.4 20.8 18.7 96 0.4 S 9 13 5 7 1004.7 1004.7 5.6
15/01:37am 19.4 21.8 18.7 96 0.4 SSW 4 7 2 4 1005.2 1005.2 5.6
15/01:30am 19.3 22.4 18.6 96 0.4 CALM 0 6 0 3 1005.1 1005.1 5.6
15/01:00am 19.3 21.2 18.5 95 0.5 WSW 6 7 3 4 1005.0 1005.0 5.6
15/12:30am 19.1 22.0 18.1 94 0.6 CALM 0 0 0 0 1005.5 1005.5 5.6
15/12:00am 19.1 21.9 17.9 93 0.7 CALM 0 4 0 2 1005.6 1005.6 5.6
 
Date/Time
EDT
Temp
°C
App
Temp
°C
Dew
Point
°C
Rel
Hum
%
Delta-T
°C
Wind Press
QNH
hPa
Press
MSL
hPa
Rain since
9am
mm
Dir  Spd
km/h
Gust
km/h
Spd
kts
Gust
kts
14/11:53pm 19.0 21.7 17.8 93 0.7 CALM 0 4 0 2 1005.9 1005.9 5.6
14/11:33pm 19.0 20.5 17.7 92 0.8 NE 6 7 3 4 1006.0 1006.0 5.6
14/11:30pm 19.0 20.5 17.7 92 0.8 NE 6 9 3 5 1006.1 1006.1 5.6
14/11:00pm 19.3 19.0 17.4 89 1.2 N 15 26 8 14 1005.7 1005.7 5.4
14/10:58pm 19.4 19.1 17.4 88 1.2 N 15 26 8 14 1005.8 1005.8 4.8
14/10:30pm 19.8 22.1 17.8 88 1.2 NW 2 6 1 3 1005.6 1005.6 1.6
14/10:00pm 19.9 21.4 17.7 87 1.4 E 6 6 3 3 1005.6 1005.6 1.6
14/09:30pm 19.9 20.9 17.7 87 1.4 NNE 9 9 5 5 1005.5 1005.5 1.6
14/09:00pm 19.9 21.4 17.7 87 1.4 N 6 7 3 4 1004.8 1004.8 1.6
14/08:30pm 20.2 21.0 18.1 88 1.3 N 11 15 6 8 1004.9 1004.9 1.6
14/08:21pm 20.1 21.2 18.1 88 1.2 NNE 9 11 5 6 1004.9 1004.9 1.6
14/08:00pm 20.0 20.3 18.0 88 1.2 N 13 17 7 9 1004.7 1004.7 1.6
14/07:47pm 20.1 20.1 18.1 88 1.2 N 15 17 8 9 1004.6 1004.6 1.6
14/07:30pm 20.1 20.7 17.7 86 1.5 N 11 15 6 8 1004.1 1004.1 1.6
14/07:00pm 20.4 19.5 17.8 85 1.6 N 19 24 10 13 1003.5 1003.5 1.6
14/06:30pm 21.7 22.3 18.7 83 1.9 NNE 13 17 7 9 1002.9 1002.9 1.6
14/06:00pm 21.3 21.3 18.9 86 1.5 N 17 20 9 11 1002.7 1002.7 1.6
14/05:30pm 22.0 21.9 19.5 86 1.6 E 19 30 10 16 1002.4 1002.4 1.6
14/05:00pm 21.3 23.6 20.6 96 0.5 SSW 9 11 5 6 1002.2 1002.2 1.6
14/04:30pm 20.1 20.5 18.9 93 0.8 SW 15 20 8 11 1002.6 1002.6 1.0
14/04:00pm 19.6 18.8 17.9 90 1.1 SSW 19 26 10 14 1002.9 1002.9 1.0
14/03:30pm 19.5 17.5 16.5 83 1.8 SSW 22 32 12 17 1003.6 1003.6 0.2
14/03:00pm 20.6 18.6 16.4 77 2.5 SSW 22 30 12 16 1003.6 1003.6 0.0
14/02:30pm 21.6 19.7 15.7 69 3.5 SW 20 28 11 15 1003.4 1003.4 0.0
14/02:00pm 21.7 20.2 15.3 67 3.8 SW 17 26 9 14 1003.9 1003.9 0.0
14/01:30pm 20.3 19.8 15.9 76 2.6 SW 13 17 7 9 1004.1 1004.1 0.0
14/01:00pm 20.3 20.2 16.1 77 2.5 WSW 11 19 6 10 1004.2 1004.2 0.0
14/12:40pm 19.6 19.7 15.5 77 2.4 WSW 9 15 5 8 1004.2 1004.2 0.0
14/12:30pm 19.5 18.8 15.4 77 2.4 WSW 13 19 7 10 1004.2 1004.2 0.0
14/12:14pm 19.5 19.0 15.8 79 2.2 SW 13 17 7 9 1003.9 1003.9 0.0
14/12:00pm 19.8 19.4 16.1 79 2.2 SW 13 19 7 10 1003.8 1003.8 0.0
14/11:30am 18.4 17.5 14.9 80 2.0 SW 13 22 7 12 1003.4 1003.4 0.0
14/11:00am 19.0 17.7 14.7 76 2.5 WNW 15 20 8 11 1003.7 1003.7 0.0
14/10:31am 18.9 17.6 14.8 77 2.4 NNW 15 22 8 12 1004.2 1004.2 0.0
14/10:30am 19.0 17.4 15.1 78 2.3 NNW 17 22 9 12 1004.1 1004.1 0.0
14/10:00am 18.4 17.4 14.7 79 2.2 WNW 13 17 7 9 1004.0 1004.0 0.0
14/09:30am 18.0 17.4 14.5 80 2.0 NW 11 17 6 9 1004.0 1004.0 0.0
14/09:00am 17.6 17.0 14.7 83 1.7 NW 11 13 6 7 1003.3 1003.3 21.2
14/08:30am 17.5 16.5 15.7 89 1.1 NW 15 22 8 12 1003.0 1003.0 21.2
14/08:00am 18.0 18.3 16.9 93 0.7 N 11 13 6 7 1003.0 1003.0 21.2
14/07:55am 17.9 18.5 16.8 93 0.7 NNE 9 13 5 7 1003.1 1003.1 21.2
14/07:30am 17.8 18.9 17.0 95 0.5 SE 7 9 4 5 1002.3 1002.3 21.2
14/07:22am 17.6 18.9 17.0 96 0.4 ESE 6 9 3 5 1002.2 1002.2 21.2
14/07:00am 17.2 18.7 16.7 97 0.3 SSE 4 9 2 5 1001.7 1001.7 21.2
14/06:50am 17.0 17.9 16.5 97 0.3 SSW 7 11 4 6 1001.3 1001.3 21.2
14/06:30am 16.6 17.3 16.1 97 0.3 SW 7 11 4 6 1000.7 1000.7 21.2
14/06:00am 16.2 16.7 15.6 96 0.4 WNW 7 9 4 5 1000.6 1000.6 21.2
14/05:30am 16.2 17.2 15.4 95 0.5 NNE 4 7 2 4 1000.6 1000.6 21.2
14/05:00am 16.3 15.6 15.5 95 0.5 SE 13 15 7 8 1000.5 1000.5 21.2
14/04:30am 16.2 16.5 15.1 93 0.6 SE 7 9 4 5 1000.1 1000.1 21.2
14/04:00am 16.2 16.5 14.9 92 0.8 SE 7 9 4 5 999.8 999.8 21.2
14/03:30am 16.6 17.5 15.1 91 0.9 S 4 9 2 5 999.5 999.5 21.2
14/03:00am 17.2 18.6 15.5 90 1.0 NNE 2 6 1 3 999.6 999.6 21.2
14/02:30am 17.2 19.0 15.5 90 1.0 CALM 0 6 0 3 999.4 999.4 21.2
14/02:00am 17.0 17.4 15.2 89 1.1 ENE 7 9 4 5 999.0 999.0 21.2
14/01:30am 17.3 17.4 15.5 89 1.1 ENE 9 11 5 6 998.5 998.5 21.2
14/01:00am 16.9 17.2 14.9 88 1.2 E 7 7 4 4 998.2 998.2 21.2
14/12:30am 17.2 17.6 15.2 88 1.2 NNE 7 11 4 6 998.1 998.1 21.2
14/12:00am 17.2 17.1 15.0 87 1.3 ESE 9 11 5 6 997.7 997.7 21.2
 
Date/Time
EDT
Temp
°C
App
Temp
°C
Dew
Point
°C
Rel
Hum
%
Delta-T
°C
Wind Press
QNH
hPa
Press
MSL
hPa
Rain since
9am
mm
Dir  Spd
km/h
Gust
km/h
Spd
kts
Gust
kts
13/11:30pm 17.7 18.1 15.3 86 1.4 ESE 7 9 4 5 997.1 997.1 21.2
13/11:18pm 17.9 17.2 15.5 86 1.4 SE 13 19 7 10 996.9 996.9 21.2
13/11:00pm 18.4 17.6 16.2 87 1.3 SSE 15 20 8 11 997.2 997.2 21.2
13/10:30pm 18.7 18.9 16.7 88 1.2 SW 11 17 6 9 997.3 997.3 21.2
13/10:00pm 18.5 19.2 16.1 86 1.4 WSW 7 9 4 5 997.0 997.0 21.2
13/09:56pm 18.5 19.2 16.1 86 1.4 WSW 7 9 4 5 997.0 997.0 21.2
13/09:30pm 18.3 18.6 15.9 86 1.4 WNW 9 13 5 7 997.1 997.1 21.2
13/09:00pm 18.1 17.8 15.5 85 1.5 SSW 11 17 6 9 995.8 995.8 21.2
13/08:30pm 18.3 18.5 15.7 85 1.5 S 9 19 5 10 995.5 995.5 21.2
13/08:09pm 18.4 17.4 15.6 84 1.6 SSE 15 24 8 13 995.1 995.1 21.2
13/08:00pm 18.6 18.1 15.8 84 1.7 SE 13 22 7 12 995.7 995.7 21.2
13/07:30pm 18.7 17.1 15.9 84 1.7 ESE 19 24 10 13 996.1 996.1 21.2
13/07:00pm 18.5 17.0 15.4 82 1.8 ESE 17 28 9 15 995.8 995.8 21.2
13/06:49pm 18.8 16.4 15.3 80 2.1 SE 22 33 12 18 995.5 995.5 21.2
13/06:30pm 19.4 14.4 15.1 76 2.5 SE 35 44 19 24 994.1 994.1 21.2
13/06:21pm 19.5 14.9 14.7 74 2.8 SE 32 43 17 23 993.8 993.8 21.2
13/06:00pm 19.5 16.4 14.5 73 2.9 ESE 24 30 13 16 995.9 995.9 21.2
13/05:30pm 20.3 18.0 14.7 70 3.3 ESE 20 33 11 18 996.2 996.2 21.2
13/05:16pm 20.3 18.0 14.7 70 3.3 SE 20 39 11 21 995.6 995.6 21.2
13/05:00pm 20.6 20.9 14.5 68 3.6 W 6 11 3 6 997.2 997.2 21.2
13/04:30pm 19.9 20.1 14.3 70 3.2 ENE 6 9 3 5 997.8 997.8 21.2
13/04:00pm 19.0 17.0 13.8 72 3.0 SE 17 24 9 13 997.9 997.9 21.2
13/03:30pm 19.2 16.7 14.2 73 2.9 ESE 20 26 11 14 997.6 997.6 21.2
13/03:00pm 19.2 17.1 14.7 75 2.6 SE 19 24 10 13 997.8 997.8 21.2
13/02:30pm 18.5 16.4 14.8 79 2.2 S 19 26 10 14 997.8 997.8 21.2
13/02:23pm 18.4 16.8 15.1 81 1.9 S 17 24 9 13 997.8 997.8 21.2
13/02:00pm 17.7 15.0 15.5 87 1.3 S 24 32 13 17 998.1 998.1 21.2
13/01:30pm 18.0 15.9 17.2 95 0.5 SSW 24 35 13 19 998.5 998.5 21.2
13/01:16pm 17.2 14.5 16.6 96 0.4 SSW 26 39 14 21 998.5 998.5 21.2
13/01:15pm 17.6 15.1 17.1 97 0.3 SSW 26 35 14 19 998.5 998.5 21.2
13/01:00pm 16.5 13.9 15.9 96 0.4 SW 24 37 13 20 998.7 998.7 20.6
13/12:53pm 16.5 14.2 15.7 95 0.5 SW 22 30 12 16 999.0 999.0 20.0
13/12:30pm 16.5 14.6 15.2 92 0.8 SW 19 32 10 17 1000.1 1000.1 14.6
13/12:29pm 16.5 14.3 15.0 91 0.9 SW 20 35 11 19 1000.2 1000.2 14.4
13/12:00pm 17.1 15.0 15.1 88 1.2 SW 20 32 11 17 999.2 999.2 10.4
13/11:30am 17.7 15.1 16.0 90 1.0 SSW 24 35 13 19 998.3 998.3 9.4
13/11:00am 17.2 14.9 16.6 96 0.4 SSW 24 39 13 21 997.7 997.7 9.4
13/10:51am 17.6 14.4 17.3 98 0.2 SSW 30 43 16 23 997.7 997.7 9.4
13/10:50am 17.5 13.9 17.2 98 0.2 SSW 32 43 17 23 997.6 997.6 9.4
13/10:32am 17.0 13.6 16.8 99 0.1 SSW 30 48 16 26 997.4 997.4 8.4
13/10:30am 17.0 13.6 16.8 99 0.1 SSW 30 46 16 25 997.5 997.5 8.2
13/10:29am 16.9 13.9 16.7 99 0.1 SSW 28 46 15 25 997.6 997.6 8.2
13/10:24am 17.2 15.1 17.2 100 0.0 SSW 24 39 13 21 997.8 997.8 7.8
13/10:12am 17.3 15.3 17.3 100 0.0 SW 24 33 13 18 998.1 998.1 5.8
13/10:00am 17.2 14.4 17.2 100 0.0 SW 28 41 15 22 998.0 998.0 5.2
13/09:30am 17.2 15.4 17.0 99 0.1 WSW 22 32 12 17 998.4 998.4 2.6
13/09:00am 17.3 14.3 16.8 97 0.3 SW 28 39 15 21 998.0 998.0 15.8
13/08:30am 17.6 16.2 16.5 93 0.7 WNW 19 30 10 16 998.1 998.1 9.0
13/08:09am 18.4 17.1 16.7 90 1.0 W 19 28 10 15 997.9 997.9 5.4
13/08:00am 19.1 18.7 17.2 89 1.2 W 15 20 8 11 997.8 997.8 3.8
13/07:30am 19.5 20.1 16.9 85 1.6 WNW 9 15 5 8 997.8 997.8 2.0
13/07:00am 19.9 20.1 16.7 82 1.9 W 11 17 6 9 998.0 998.0 0.8
13/06:30am 20.5 20.8 15.9 75 2.7 N 9 13 5 7 997.1 997.1 0.0
13/06:00am 20.9 21.2 16.1 74 2.9 N 9 11 5 6 997.2 997.2 0.0
13/05:30am 20.3 20.6 15.9 76 2.6 N 9 11 5 6 997.7 997.7 0.0
13/05:00am 20.2 21.0 15.8 76 2.6 N 6 7 3 4 997.8 997.8 0.0
13/04:30am 20.3 20.8 15.5 74 2.8 NW 7 11 4 6 997.6 997.6 0.0
13/04:00am 20.3 20.4 15.5 74 2.9 WNW 9 13 5 7 997.8 997.8 0.0
13/03:30am 20.8 21.4 15.8 73 3.0 N 7 11 4 6 997.8 997.8 0.0
13/03:00am 20.5 20.5 15.1 71 3.2 E 9 11 5 6 998.4 998.4 0.0
13/02:30am 21.3 21.4 15.6 70 3.4 E 9 15 5 8 998.8 998.8 0.0
13/02:00am 21.5 21.0 15.8 70 3.4 E 13 17 7 9 999.2 999.2 0.0
13/01:30am 21.3 21.1 15.8 71 3.3 E 11 15 6 8 999.7 999.7 0.0
13/01:00am 21.2 21.2 16.2 73 3.0 ENE 11 15 6 8 1000.3 1000.3 0.0

Other Formats:

Comma delimited format used in spreadsheet applications
http://www.bom.gov.au/fwo/IDV60801/IDV60801.94870.axf

JavaScript Object Notation format (JSON) in row-major order
http://www.bom.gov.au/fwo/IDV60801/IDV60801.94870.json